createdAt,value
2022-10-17T00:01:19.984Z,17.77
2022-10-17T00:03:46.404Z,15.98
2022-10-17T00:06:15.081Z,13.88
2022-10-17T00:08:43.441Z,17.00
2022-10-17T00:11:16.712Z,18.67
2022-10-17T00:13:43.318Z,18.67
2022-10-17T00:16:09.830Z,16.85
2022-10-17T00:18:36.199Z,18.42
2022-10-17T00:21:02.677Z,16.45
2022-10-17T00:23:29.218Z,18.38
2022-10-17T00:26:03.704Z,16.13
2022-10-17T00:28:30.996Z,17.33
2022-10-17T00:31:03.056Z,15.93
2022-10-17T00:36:13.289Z,16.63
2022-10-17T00:38:41.508Z,17.15
2022-10-17T00:41:15.170Z,16.52
2022-10-17T00:44:03.538Z,16.60
2022-10-17T00:46:35.589Z,19.92
2022-10-17T00:51:38.350Z,16.90
2022-10-17T00:54:05.266Z,21.67
2022-10-17T00:56:32.014Z,18.90
2022-10-17T00:58:58.488Z,20.30
2022-10-17T01:01:25.373Z,22.83
2022-10-17T01:03:51.783Z,19.15
2022-10-17T01:06:18.143Z,19.88
2022-10-17T01:08:45.109Z,17.77
2022-10-17T01:11:27.768Z,19.42
2022-10-17T01:14:00.335Z,22.50
2022-10-17T01:16:44.712Z,18.63
2022-10-17T01:19:34.472Z,21.33
2022-10-17T01:22:14.955Z,20.45
2022-10-17T01:25:11.833Z,17.80
2022-10-17T01:28:12.770Z,20.55
2022-10-17T01:31:03.625Z,20.02
2022-10-17T01:33:41.296Z,21.67
2022-10-17T01:36:19.246Z,21.65
2022-10-17T01:39:11.484Z,20.75
2022-10-17T01:41:46.968Z,20.83
2022-10-17T01:44:36.800Z,23.15
2022-10-17T01:47:15.863Z,21.20
2022-10-17T01:49:45.196Z,20.58
2022-10-17T01:52:28.165Z,21.13
2022-10-17T01:55:10.381Z,23.27
2022-10-17T01:57:45.044Z,24.38
2022-10-17T02:00:16.855Z,23.70
2022-10-17T02:02:46.371Z,23.05
2022-10-17T02:05:12.976Z,24.77
2022-10-17T02:07:41.771Z,25.80
2022-10-17T02:10:19.298Z,22.95
2022-10-17T02:12:54.412Z,24.27
2022-10-17T02:15:46.558Z,28.60
2022-10-17T02:18:27.836Z,25.00
2022-10-17T02:21:02.890Z,23.80
2022-10-17T02:24:06.996Z,24.63
2022-10-17T02:27:01.573Z,25.65
2022-10-17T02:29:36.381Z,23.65
2022-10-17T02:32:13.747Z,24.38
2022-10-17T02:34:44.120Z,24.35
2022-10-17T02:37:14.924Z,24.73
2022-10-17T02:39:44.263Z,26.00
2022-10-17T02:42:13.253Z,25.05
2022-10-17T02:44:43.092Z,24.25
2022-10-17T02:47:18.696Z,28.75
2022-10-17T02:49:50.711Z,26.13
2022-10-17T02:52:26.256Z,24.15
2022-10-17T02:55:06.194Z,25.70
2022-10-17T02:57:46.455Z,26.27
2022-10-17T03:00:15.241Z,30.08
2022-10-17T03:02:47.984Z,28.70
2022-10-17T03:05:20.636Z,27.48
2022-10-17T03:07:47.074Z,27.70
2022-10-17T03:10:13.622Z,27.13
2022-10-17T03:12:39.943Z,29.73
2022-10-17T03:15:06.977Z,29.02
2022-10-17T03:17:33.568Z,31.90
2022-10-17T03:19:59.914Z,26.85
2022-10-17T03:22:26.642Z,29.70
2022-10-17T03:24:53.197Z,27.60
2022-10-17T03:27:19.568Z,29.95
2022-10-17T03:29:45.886Z,26.35
2022-10-17T03:32:12.386Z,26.95
2022-10-17T03:34:38.947Z,27.80
2022-10-17T03:37:05.326Z,25.77
2022-10-17T03:39:31.680Z,27.67
2022-10-17T03:41:58.046Z,28.48
2022-10-17T03:44:24.394Z,25.75
2022-10-17T03:46:50.685Z,28.55
2022-10-17T03:49:17.009Z,28.63
2022-10-17T03:51:43.320Z,30.15
2022-10-17T03:54:09.670Z,28.67
2022-10-17T03:56:35.982Z,25.63
2022-10-17T03:59:02.301Z,30.23
2022-10-17T04:01:28.619Z,27.33
2022-10-17T04:03:56.780Z,28.45
2022-10-17T04:06:23.736Z,30.30
2022-10-17T04:08:50.277Z,26.00
2022-10-17T04:11:20.628Z,28.27
2022-10-17T04:13:47.657Z,29.80
2022-10-17T04:16:16.716Z,27.80
2022-10-17T04:18:43.805Z,27.23
2022-10-17T04:21:11.265Z,26.33
2022-10-17T04:23:37.811Z,26.92
2022-10-17T04:26:05.155Z,27.00
2022-10-17T04:28:32.578Z,26.35
2022-10-17T04:31:01.176Z,26.17
2022-10-17T04:33:27.825Z,23.58
2022-10-17T04:36:10.137Z,22.40
2022-10-17T04:38:36.917Z,22.67
2022-10-17T04:41:05.872Z,26.20
2022-10-17T04:43:35.195Z,24.40
2022-10-17T04:46:03.106Z,24.05
2022-10-17T04:48:29.992Z,26.67
2022-10-17T04:50:58.730Z,24.35
2022-10-17T04:53:25.270Z,22.58
2022-10-17T04:55:51.590Z,23.40
2022-10-17T04:58:17.914Z,23.25
2022-10-17T05:00:44.293Z,23.92
2022-10-17T05:03:10.674Z,24.40
2022-10-17T05:05:38.451Z,23.70
2022-10-17T05:08:05.813Z,23.15
2022-10-17T05:10:39.758Z,24.23
2022-10-17T05:13:06.385Z,22.52
2022-10-17T05:15:32.983Z,23.98
2022-10-17T05:17:59.311Z,22.42
2022-10-17T05:20:26.377Z,22.00
2022-10-17T05:22:52.869Z,23.58
2022-10-17T05:25:19.408Z,22.73
2022-10-17T05:27:45.992Z,23.48
2022-10-17T05:30:12.510Z,21.98
2022-10-17T05:32:38.834Z,19.60
2022-10-17T05:35:05.729Z,22.33
2022-10-17T05:37:32.358Z,19.35
2022-10-17T05:39:58.683Z,20.55
2022-10-17T05:42:25.171Z,21.45
2022-10-17T05:44:51.533Z,24.30
2022-10-17T05:47:17.945Z,17.83
2022-10-17T05:49:48.719Z,24.65
2022-10-17T05:52:18.557Z,21.95
2022-10-17T05:54:44.882Z,20.05
2022-10-17T05:57:11.481Z,22.27
2022-10-17T05:59:37.867Z,18.50
2022-10-17T06:02:04.322Z,19.45
2022-10-17T06:04:30.657Z,22.15
2022-10-17T06:06:57.041Z,19.65
2022-10-17T06:09:24.174Z,21.42
2022-10-17T06:11:50.521Z,17.77
2022-10-17T06:14:16.921Z,17.48
2022-10-17T06:16:43.221Z,17.95
2022-10-17T06:19:09.645Z,20.10
2022-10-17T06:21:35.970Z,20.35
2022-10-17T06:24:02.291Z,17.50
2022-10-17T06:26:28.623Z,18.27
2022-10-17T06:28:55.640Z,20.00
2022-10-17T06:31:22.013Z,16.17
2022-10-17T06:33:48.304Z,22.45
2022-10-17T06:36:15.471Z,17.83
2022-10-17T06:38:41.893Z,20.58
2022-10-17T06:41:11.975Z,17.13
2022-10-17T06:43:38.909Z,17.63
2022-10-17T06:46:05.971Z,16.42
2022-10-17T06:48:33.099Z,16.98
2022-10-17T06:51:04.962Z,17.55
2022-10-17T06:53:34.521Z,16.08
2022-10-17T06:56:01.502Z,14.50
2022-10-17T06:58:32.059Z,14.93
2022-10-17T07:01:03.382Z,14.05
2022-10-17T07:03:30.201Z,14.88
2022-10-17T07:05:57.311Z,14.05
2022-10-17T07:08:24.021Z,14.70
2022-10-17T07:10:50.745Z,15.38
2022-10-17T07:13:17.983Z,14.23
2022-10-17T07:15:44.480Z,13.52
2022-10-17T07:18:10.972Z,15.25
2022-10-17T07:20:37.772Z,13.90
2022-10-17T07:23:04.736Z,15.60
2022-10-17T07:25:31.182Z,15.80
2022-10-17T07:27:58.436Z,17.90
2022-10-17T07:30:25.182Z,14.95
2022-10-17T07:32:53.750Z,15.93
2022-10-17T07:35:20.687Z,14.95
2022-10-17T07:37:47.214Z,15.48
2022-10-17T07:40:13.639Z,15.60
2022-10-17T07:45:11.162Z,17.73
2022-10-17T07:47:37.470Z,16.38
2022-10-17T07:50:05.448Z,13.55
2022-10-17T07:52:31.926Z,16.13
2022-10-17T07:54:59.085Z,15.35
2022-10-17T07:57:25.827Z,15.27
2022-10-17T07:59:52.177Z,13.43
2022-10-17T08:02:22.839Z,15.10
2022-10-17T08:04:49.720Z,15.70
2022-10-17T08:07:22.959Z,15.07
2022-10-17T08:09:51.911Z,16.35
2022-10-17T08:12:18.391Z,14.43
2022-10-17T08:14:44.703Z,12.93
2022-10-17T08:17:11.081Z,13.73
2022-10-17T08:19:40.757Z,14.23
2022-10-17T08:22:07.642Z,14.98
2022-10-17T08:24:34.511Z,15.40
2022-10-17T08:27:00.886Z,13.18
2022-10-17T08:29:27.358Z,15.10
2022-10-17T08:31:58.545Z,16.23
2022-10-17T08:34:27.917Z,14.25
2022-10-17T08:36:54.334Z,12.93
2022-10-17T08:39:20.783Z,15.75
2022-10-17T08:42:08.371Z,14.02
2022-10-17T08:44:40.735Z,14.38
2022-10-17T08:47:13.305Z,12.35
2022-10-17T08:49:46.870Z,17.25
2022-10-17T08:52:22.367Z,15.73
2022-10-17T08:54:49.863Z,16.63
2022-10-17T08:57:17.335Z,13.90
2022-10-17T08:59:45.366Z,14.90
2022-10-17T09:02:33.501Z,14.68
2022-10-17T09:04:59.857Z,13.35
2022-10-17T09:07:49.902Z,14.23
2022-10-17T09:10:32.980Z,16.90
2022-10-17T09:13:07.997Z,13.05
2022-10-17T09:15:41.637Z,16.50
2022-10-17T09:18:10.573Z,15.68
2022-10-17T09:20:46.183Z,15.60
2022-10-17T09:23:19.684Z,17.55
2022-10-17T09:25:50.459Z,17.02
2022-10-17T09:28:37.025Z,17.08
2022-10-17T09:31:26.557Z,17.52
2022-10-17T09:33:56.532Z,19.23
2022-10-17T09:36:32.091Z,19.33
2022-10-17T09:39:00.753Z,15.70
2022-10-17T09:41:51.202Z,17.10
2022-10-17T09:44:33.581Z,18.23
2022-10-17T09:47:15.084Z,17.58
2022-10-17T09:49:43.855Z,15.07
2022-10-17T09:52:25.212Z,16.58
2022-10-17T09:54:55.901Z,16.48
2022-10-17T09:57:23.052Z,15.80
2022-10-17T10:00:01.906Z,18.25
2022-10-17T10:02:30.755Z,16.33
2022-10-17T10:05:06.260Z,14.77
2022-10-17T10:07:38.807Z,16.27
2022-10-17T10:12:36.357Z,14.60
2022-10-17T10:15:22.759Z,19.00
2022-10-17T10:17:49.110Z,17.42
2022-10-17T10:20:29.885Z,15.98
2022-10-17T10:23:15.561Z,19.05
2022-10-17T10:25:51.914Z,15.57
2022-10-17T10:28:18.664Z,18.75
2022-10-17T10:30:51.101Z,17.77
2022-10-17T10:33:21.004Z,18.25
2022-10-17T10:35:59.357Z,15.48
2022-10-17T10:38:25.805Z,13.98
2022-10-17T10:40:57.538Z,15.18
2022-10-17T10:43:46.876Z,15.57
2022-10-17T10:46:17.980Z,16.23
2022-10-17T10:48:57.631Z,13.98
2022-10-17T10:51:27.151Z,14.32
2022-10-17T10:54:10.910Z,13.60
2022-10-17T10:56:40.608Z,14.68
2022-10-17T10:59:31.735Z,15.32
2022-10-17T11:02:14.319Z,15.45
2022-10-17T11:04:44.254Z,14.32
2022-10-17T11:07:16.584Z,13.73
2022-10-17T11:09:58.417Z,12.75
2022-10-17T11:12:33.895Z,15.60
2022-10-17T11:15:31.780Z,13.25
2022-10-17T11:18:04.962Z,13.70
2022-10-17T11:20:51.527Z,13.52
2022-10-17T11:24:00.967Z,12.50
2022-10-17T11:26:31.795Z,11.55
2022-10-17T11:29:01.913Z,12.35
2022-10-17T11:31:36.388Z,10.98
2022-10-17T11:34:12.011Z,11.48
2022-10-17T11:36:43.736Z,12.07
2022-10-17T11:39:26.094Z,10.13
2022-10-17T11:42:04.108Z,10.27
2022-10-17T11:44:41.067Z,10.70
2022-10-17T11:47:13.917Z,10.43
2022-10-17T11:52:57.170Z,9.63
2022-10-17T11:55:26.485Z,9.50
2022-10-17T11:58:20.851Z,8.32
2022-10-17T12:01:26.084Z,8.85
2022-10-17T12:04:01.437Z,8.00
2022-10-17T12:06:43.043Z,8.35
2022-10-17T12:09:43.556Z,8.63
2022-10-17T12:12:09.991Z,9.88
2022-10-17T12:14:40.990Z,8.82
2022-10-17T12:17:32.834Z,8.02
2022-10-17T12:20:21.546Z,9.13
2022-10-17T12:22:49.667Z,8.13
2022-10-17T12:25:25.710Z,8.70
2022-10-17T12:28:25.005Z,7.95
2022-10-17T12:31:13.123Z,7.40
2022-10-17T12:33:50.055Z,7.70
2022-10-17T12:36:19.066Z,8.43
2022-10-17T12:38:49.874Z,8.10
2022-10-17T12:41:17.462Z,8.57
2022-10-17T12:46:44.694Z,8.35
2022-10-17T12:49:46.234Z,8.38
2022-10-17T12:52:31.033Z,7.90
2022-10-17T12:55:14.421Z,8.38
2022-10-17T12:57:59.484Z,9.10
2022-10-17T13:00:49.701Z,8.27
2022-10-17T13:03:30.461Z,9.13
2022-10-17T13:06:06.441Z,9.23
2022-10-17T13:08:42.802Z,9.68
2022-10-17T13:11:10.557Z,10.05
2022-10-17T13:13:49.052Z,10.25
2022-10-17T13:16:31.887Z,11.52
2022-10-17T13:18:59.994Z,9.80
2022-10-17T13:21:27.653Z,10.95
2022-10-17T13:23:54.491Z,9.77
2022-10-17T13:26:26.322Z,10.48
2022-10-17T13:29:11.813Z,10.25
2022-10-17T13:31:40.575Z,10.35
2022-10-17T13:34:17.774Z,10.52
2022-10-17T13:36:48.850Z,10.32
2022-10-17T13:39:23.049Z,9.13
2022-10-17T13:41:56.317Z,10.70
2022-10-17T13:44:27.324Z,9.25
2022-10-17T13:46:54.660Z,10.73
2022-10-17T13:49:41.191Z,10.52
2022-10-17T13:52:17.323Z,13.50
2022-10-17T13:54:47.194Z,13.13
2022-10-17T13:57:20.268Z,11.93
2022-10-17T13:59:50.166Z,10.82
2022-10-17T14:02:24.057Z,12.55
2022-10-17T14:05:20.807Z,12.02
2022-10-17T14:08:21.653Z,13.15
2022-10-17T14:10:47.023Z,12.95
2022-10-17T14:13:23.626Z,13.60
2022-10-17T14:15:51.184Z,13.02
2022-10-17T14:18:24.295Z,13.07
2022-10-17T14:23:43.713Z,14.35
2022-10-17T14:26:17.253Z,11.18
2022-10-17T14:28:46.909Z,10.80
2022-10-17T14:31:28.704Z,11.65
2022-10-17T14:33:55.542Z,10.48
2022-10-17T14:36:38.965Z,9.88
2022-10-17T14:39:11.890Z,9.35
2022-10-17T14:41:44.518Z,10.98
2022-10-17T14:44:24.018Z,9.77
2022-10-17T14:46:56.278Z,11.73
2022-10-17T14:49:34.309Z,10.20
2022-10-17T14:52:18.259Z,11.55
2022-10-17T14:54:47.286Z,13.43
2022-10-17T14:57:25.733Z,14.35
2022-10-17T14:59:54.560Z,11.80
2022-10-17T15:02:22.582Z,12.02
2022-10-17T15:04:48.968Z,13.30
2022-10-17T15:07:16.898Z,13.15
2022-10-17T15:09:44.750Z,12.65
2022-10-17T15:12:15.335Z,12.57
2022-10-17T15:14:41.674Z,13.57
2022-10-17T15:17:13.156Z,11.77
2022-10-17T15:19:39.519Z,13.02
2022-10-17T15:22:05.815Z,12.75
2022-10-17T15:24:32.183Z,13.20
2022-10-17T15:26:58.541Z,15.23
2022-10-17T15:29:24.850Z,12.73
2022-10-17T15:31:51.147Z,12.98
2022-10-17T15:34:17.471Z,12.35
2022-10-17T15:36:49.942Z,12.48
2022-10-17T15:39:16.249Z,15.88
2022-10-17T15:41:42.634Z,12.32
2022-10-17T15:44:08.958Z,13.73
2022-10-17T15:46:35.824Z,13.93
2022-10-17T15:49:05.028Z,13.10
2022-10-17T15:51:31.330Z,15.35
2022-10-17T15:53:57.653Z,13.50
2022-10-17T15:56:31.296Z,15.30
2022-10-17T15:58:58.207Z,15.95
2022-10-17T16:01:26.953Z,14.90
2022-10-17T16:03:53.986Z,16.75
2022-10-17T16:06:21.586Z,19.98
2022-10-17T16:08:48.382Z,14.20
2022-10-17T16:11:23.756Z,14.57
2022-10-17T16:13:53.075Z,16.27
2022-10-17T16:16:19.792Z,16.15
2022-10-17T16:18:46.214Z,16.52
2022-10-17T16:21:13.435Z,15.73
2022-10-17T16:23:40.037Z,13.90
2022-10-17T16:26:07.019Z,18.80
2022-10-17T16:28:34.305Z,15.80
2022-10-17T16:31:00.716Z,15.07
2022-10-17T16:33:27.103Z,17.58
2022-10-17T16:35:53.532Z,16.38
2022-10-17T16:38:19.834Z,17.23
2022-10-17T16:40:46.256Z,16.45
2022-10-17T16:43:13.163Z,17.00
2022-10-17T16:45:40.057Z,17.10
2022-10-17T16:48:06.526Z,20.00
2022-10-17T16:50:32.879Z,18.33
2022-10-17T16:52:59.189Z,22.42
2022-10-17T16:55:25.536Z,20.75
2022-10-17T16:57:51.873Z,18.90
2022-10-17T17:00:18.270Z,18.48
2022-10-17T17:02:47.606Z,16.88
2022-10-17T17:05:14.107Z,18.75
2022-10-17T17:07:40.438Z,20.17
2022-10-17T17:10:07.078Z,18.50
2022-10-17T17:12:34.725Z,21.65
2022-10-17T17:15:01.439Z,19.20
2022-10-17T17:17:44.198Z,21.55
2022-10-17T17:20:14.283Z,22.38
2022-10-17T17:22:40.575Z,23.15
2022-10-17T17:25:07.192Z,24.50
2022-10-17T17:27:33.637Z,24.90
2022-10-17T17:29:59.971Z,23.55
2022-10-17T17:32:26.332Z,25.98
2022-10-17T17:34:52.642Z,26.40
2022-10-17T17:37:19.024Z,25.63
2022-10-17T17:39:45.342Z,28.83
2022-10-17T17:42:11.705Z,31.02
2022-10-17T17:44:38.076Z,27.98
2022-10-17T17:47:04.554Z,25.90
2022-10-17T17:49:30.904Z,25.73
2022-10-17T17:51:57.427Z,27.67
2022-10-17T17:54:23.781Z,32.38
2022-10-17T17:56:50.102Z,26.50
2022-10-17T17:59:16.428Z,26.77
2022-10-17T18:01:43.451Z,28.88
2022-10-17T18:04:10.749Z,29.38
2022-10-17T18:06:38.539Z,32.25
2022-10-17T18:09:06.249Z,26.73
2022-10-17T18:11:32.862Z,25.98
2022-10-17T18:14:02.148Z,27.75
2022-10-17T18:16:30.853Z,28.45
2022-10-17T18:19:01.480Z,30.80
2022-10-17T18:21:31.144Z,31.30
2022-10-17T18:23:57.506Z,34.03
2022-10-17T18:26:23.816Z,33.20
2022-10-17T18:28:50.147Z,30.30
2022-10-17T18:31:21.303Z,33.45
2022-10-17T18:33:47.612Z,33.90
2022-10-17T18:36:15.254Z,35.28
2022-10-17T18:38:42.373Z,36.17
2022-10-17T18:41:14.436Z,34.17
2022-10-17T18:43:42.531Z,34.08
2022-10-17T18:46:16.850Z,36.30
2022-10-17T18:48:44.728Z,36.40
2022-10-17T18:51:12.643Z,43.63
2022-10-17T18:53:47.660Z,38.63
2022-10-17T18:56:14.357Z,39.13
2022-10-17T18:58:41.185Z,36.97
2022-10-17T19:01:13.757Z,36.30
2022-10-17T19:03:40.164Z,40.08
2022-10-17T19:06:07.951Z,40.17
2022-10-17T19:08:35.735Z,37.42
2022-10-17T19:11:10.579Z,34.15
2022-10-17T19:13:37.476Z,36.33
2022-10-17T19:16:15.589Z,39.83
2022-10-17T19:21:10.263Z,37.85
2022-10-17T19:23:38.004Z,42.67
2022-10-17T19:26:08.874Z,48.72
2022-10-17T19:28:36.652Z,38.67
2022-10-17T19:31:04.757Z,44.47
2022-10-17T19:33:31.864Z,44.72
2022-10-17T19:36:00.732Z,45.63
2022-10-17T19:38:27.453Z,46.78
2022-10-17T19:40:54.184Z,46.00
2022-10-17T19:43:21.458Z,46.35
2022-10-17T19:45:58.979Z,52.10
2022-10-17T19:48:25.876Z,47.33
2022-10-17T19:50:52.524Z,52.38
2022-10-17T19:53:20.371Z,49.38
2022-10-17T19:55:46.657Z,49.83
2022-10-17T19:58:13.238Z,52.45
2022-10-17T20:00:46.519Z,56.38
2022-10-17T20:03:12.926Z,67.25
2022-10-17T20:05:39.372Z,56.45
2022-10-17T20:08:06.102Z,60.08
2022-10-17T20:10:33.642Z,62.95
2022-10-17T20:13:00.081Z,53.80
2022-10-17T20:15:26.488Z,68.00
2022-10-17T20:17:52.818Z,68.30
2022-10-17T20:20:19.195Z,74.43
2022-10-17T20:22:45.525Z,63.95
2022-10-17T20:25:11.834Z,63.88
2022-10-17T20:27:38.177Z,78.43
2022-10-17T20:30:05.067Z,62.70
2022-10-17T20:32:33.785Z,69.43
2022-10-17T20:35:01.534Z,71.25
2022-10-17T20:37:28.032Z,74.90
2022-10-17T20:40:16.497Z,66.10
2022-10-17T20:42:40.789Z,68.35
2022-10-17T20:45:07.337Z,66.80
2022-10-17T20:47:45.955Z,69.00
2022-10-17T20:50:14.597Z,70.10
2022-10-17T20:52:40.894Z,75.50
2022-10-17T20:55:07.538Z,82.50
2022-10-17T20:57:33.856Z,78.88
2022-10-17T21:00:00.148Z,80.38
2022-10-17T21:02:26.510Z,74.50
2022-10-17T21:04:52.822Z,74.45
2022-10-17T21:07:19.145Z,75.70
2022-10-17T21:09:45.667Z,66.88
2022-10-17T21:12:18.057Z,75.80
2022-10-17T21:14:52.554Z,81.65
2022-10-17T21:17:18.944Z,73.25
2022-10-17T21:19:45.272Z,85.35
2022-10-17T21:22:11.557Z,89.65
2022-10-17T21:24:37.935Z,82.30
2022-10-17T21:27:04.269Z,88.75
2022-10-17T21:29:30.613Z,74.82
2022-10-17T21:31:56.932Z,69.65
2022-10-17T21:34:23.421Z,77.90
2022-10-17T21:36:50.354Z,86.68
2022-10-17T21:39:17.005Z,85.63
2022-10-17T21:41:44.180Z,84.28
2022-10-17T21:44:13.682Z,69.07
2022-10-17T21:46:40.382Z,85.30
2022-10-17T21:49:06.795Z,66.57
2022-10-17T21:51:33.255Z,117.30
2022-10-17T21:53:59.644Z,105.85
2022-10-17T21:56:28.546Z,96.50
2022-10-17T21:58:55.531Z,113.60
2022-10-17T22:01:24.647Z,135.93
2022-10-17T22:03:53.345Z,192.77
2022-10-17T22:09:14.285Z,83.90
2022-10-17T22:14:11.150Z,147.90
2022-10-17T22:16:38.355Z,98.43
2022-10-17T22:19:06.642Z,301.52
2022-10-17T22:21:35.171Z,134.63
2022-10-17T22:24:05.723Z,496.52
2022-10-17T22:26:33.914Z,566.20
2022-10-17T22:29:01.024Z,471.40
2022-10-17T22:31:27.638Z,472.92
2022-10-17T22:33:53.987Z,384.52
2022-10-17T22:36:20.359Z,444.00
2022-10-17T22:38:46.712Z,464.75
2022-10-17T22:41:13.074Z,106.95
2022-10-17T22:43:39.565Z,105.30
2022-10-17T22:46:06.974Z,295.33
2022-10-17T22:48:34.176Z,97.65
2022-10-17T22:51:01.369Z,43.13
2022-10-17T22:53:28.140Z,185.77
2022-10-17T22:55:57.855Z,49.75
2022-10-17T22:58:24.953Z,58.88
2022-10-17T23:00:52.299Z,39.33
2022-10-17T23:03:21.028Z,33.22
2022-10-17T23:05:48.084Z,56.75
2022-10-17T23:08:16.035Z,166.45
2022-10-17T23:10:42.345Z,276.83
2022-10-17T23:13:08.646Z,58.60
2022-10-17T23:15:35.178Z,219.02
2022-10-17T23:18:02.000Z,42.38
2022-10-17T23:20:29.780Z,65.72
2022-10-17T23:22:57.367Z,132.93
2022-10-17T23:25:24.104Z,185.38
2022-10-17T23:27:50.468Z,293.15
2022-10-17T23:30:16.953Z,166.32
2022-10-17T23:32:43.768Z,62.30
2022-10-17T23:35:10.250Z,62.40
2022-10-17T23:37:37.372Z,81.07
2022-10-17T23:40:05.359Z,79.30
2022-10-17T23:42:31.930Z,67.38
2022-10-17T23:44:58.305Z,68.95
2022-10-17T23:47:24.642Z,44.67
2022-10-17T23:49:50.967Z,50.08
2022-10-17T23:52:17.320Z,49.63
2022-10-17T23:54:43.668Z,70.40
2022-10-17T23:57:10.096Z,62.97
2022-10-17T23:59:36.464Z,129.10
